This is the latest recevied weather packets stored in our database for station/object DH5DY-6. If no packets are shown the sender has not sent any weather packets the latest 10 day(s).
| Time | Temp. | Humidity | Pressure | Rain* | Wind** | Luminosity | Snow |
|---|---|---|---|---|---|---|---|
| 1777133848 | 18.33° C | 23% | 1016.9 hPa | 0 mm | - | 338 W/m² | - |
| 1777132647 | 17.78° C | 27% | 1016.8 hPa | 0 mm | - | 388 W/m² | - |
| 1777132047 | 18.33° C | 26% | 1016.7 hPa | 0 mm | - | 413 W/m² | - |
| 1777130848 | 18.33° C | 26% | 1016.8 hPa | 0 mm | - | 464 W/m² | - |
| 1777130247 | 18.33° C | 27% | 1016.7 hPa | 0 mm | - | 489 W/m² | - |
| 1777129047 | 18.89° C | 27% | 1016.7 hPa | 0 mm | - | 533 W/m² | - |
| 1777128447 | 18.89° C | 27% | 1016.6 hPa | 0 mm | - | 554 W/m² | - |
| 1777127247 | 18.89° C | 28% | 1016.3 hPa | 0 mm | - | 591 W/m² | - |
| 1777126647 | 18.89° C | 30% | 1016.6 hPa | 0 mm | - | 610 W/m² | - |
| 1777125447 | 18.33° C | 35% | 1016.5 hPa | 0 mm | - | 643 W/m² | - |
| 1777124846 | 18.33° C | 38% | 1016.6 hPa | 0 mm | - | 657 W/m² | - |
| 1777123646 | 18.33° C | 38% | 1016.7 hPa | 0 mm | - | 677 W/m² | - |
| 1777123047 | 18.33° C | 38% | 1016.7 hPa | 0 mm | - | 686 W/m² | - |
| 1777121846 | 18.33° C | 38% | 1016.8 hPa | 0 mm | - | 714 W/m² | - |
| 1777121247 | 18.33° C | 43% | 1016.8 hPa | 0 mm | - | 733 W/m² | - |
| 1777120047 | 17.78° C | 44% | 1016.9 hPa | 0 mm | - | 744 W/m² | - |
| 1777119446 | 17.78° C | 48% | 1016.8 hPa | 0 mm | - | 742 W/m² | - |
| 1777118246 | 17.22° C | 45% | 1017 hPa | 0 mm | - | 752 W/m² | - |
| 1777117646 | 17.78° C | 33% | 1017.2 hPa | 0 mm | - | 765 W/m² | - |
| 1777116446 | 17.22° C | 34% | 1017.3 hPa | 0 mm | - | 754 W/m² | - |
| 1777115846 | 16.67° C | 34% | 1017.3 hPa | 0 mm | - | 768 W/m² | - |
| 1777114646 | 15.56° C | 51% | 1017.5 hPa | 0 mm | - | 754 W/m² | - |
| 1777114045 | 15° C | 49% | 1017.5 hPa | 0 mm | - | 745 W/m² | - |
| 1777112846 | 14.44° C | 53% | 1017.6 hPa | 0 mm | - | 733 W/m² | - |
| 1777112246 | 13.89° C | 57% | 1017.7 hPa | 0 mm | - | 721 W/m² | - |
* Rain latest hour (hover to see other rain measurements)
** Current wind speed in m/s (hover to see current wind gust speed)